KBJI/BJI METAR and TAF weather

Enter ICAO airport designator
Station Type Date Time Source
KBJI METAR 2019/07/17 18:36 UTC NOAA

KBJI 171836Z AUTO 16010KT 10SM SCT019 SCT027 26/20 A2976 RMK AO2 T02580202


Station Type Date Time Source
KBJI Decoded METAR 2019/07/17 18:36 UTC NOAA

Bemidji, MN, United States (KBJI) 47-30N 094-56W 420M
Jul 17, 2019 - 02:36 PM EDT / 2019.07.17 1836 UTC
Wind: from the SSE (160 degrees) at 12 MPH (10 KT):0
Visibility: 10 mile(s):0
Sky conditions: partly cloudy
Temperature: 78.4 F (25.8 C)
Dew Point: 68.4 F (20.2 C)
Relative Humidity: 71%
Pressure (altimeter): 29.76 in. Hg (1007 hPa)
ob: KBJI 171836Z AUTO 16010KT 10SM SCT019 SCT027 26/20 A2976 RMK AO2 T02580202
cycle: 18

Station Type Date Time Source
KBJI TAF 2019/07/17 18:46 UTC NOAA

TAF KBJI 171743Z 1718/1818 16008KT P6SM SCT020
FM180000 17006KT P6SM VCTS SCT015CB BKN040
TEMPO 1800/1803 3SM TSRA BR BKN025CB
FM180300 VRB03KT P6SM SCT040
FM181600 24009KT P6SM SCT120

Example: see airport list